Terminal Aerodrome Forecast
Issued by NWS Goodland, KS

Home | Current Version | Previous Version | Text Only | Print | Product List | Glossary On
Versions: 1 2 3 4 5 6 7 8 9 10 11 12 13 14 15 16 17 18 19 20 21 22
000
FTUS43 KGLD 142320
TAFGLD
TAF
KGLD 142320Z 1500/1524 18011KT P6SM SCT120
     FM151000 02015G25KT 5SM BR BKN010
      TEMPO 1511/1515 1SM BR BKN003
     FM151800 05012KT P6SM BKN015
     FM152100 10011KT P6SM SCT020=

USA.gov is the U.S. government's official web portal to all federal, state and local government web resources and services.